createdAt,value
2022-11-24T00:03:16.138Z,8.3
2022-11-24T00:13:16.522Z,8.4
2022-11-24T00:23:17.111Z,8.3
2022-11-24T00:33:17.743Z,8.3
2022-11-24T00:53:18.991Z,8.4
2022-11-24T01:03:19.239Z,8.3
2022-11-24T01:13:19.337Z,8.1
2022-11-24T01:23:19.836Z,8
2022-11-24T01:43:20.902Z,7.9
2022-11-24T01:53:21.363Z,7.9
2022-11-24T02:03:21.760Z,8
2022-11-24T02:13:21.989Z,8
2022-11-24T02:23:22.915Z,8.1
2022-11-24T02:33:23.269Z,8.2
2022-11-24T02:53:24.620Z,8.4
2022-11-24T03:03:25.596Z,8.4
2022-11-24T03:13:26.436Z,8.3
2022-11-24T03:23:26.697Z,8.2
2022-11-24T03:33:27.566Z,8.2
2022-11-24T03:43:28.113Z,8.2
2022-11-24T03:53:29.118Z,8.3
2022-11-24T04:03:29.727Z,8.5
2022-11-24T04:23:30.645Z,8.6
2022-11-24T04:33:30.788Z,8.8
2022-11-24T04:43:31.863Z,8.9
2022-11-24T04:53:31.410Z,9
2022-11-24T05:13:32.342Z,8.9
2022-11-24T05:23:32.763Z,8.7
2022-11-24T05:33:32.848Z,8.6
2022-11-24T05:43:33.793Z,8.5
2022-11-24T06:13:35.665Z,8.3
2022-11-24T06:23:36.528Z,8.4
2022-11-24T06:43:38.314Z,8.8
2022-11-24T06:53:38.853Z,8.8
2022-11-24T07:03:39.440Z,8.9
2022-11-24T07:13:40.336Z,9
2022-11-24T07:23:40.953Z,9
2022-11-24T07:33:41.765Z,9.1
2022-11-24T07:43:42.445Z,9.3
2022-11-24T07:53:42.786Z,9.3
2022-11-24T08:03:43.097Z,9.4
2022-11-24T08:23:43.779Z,9.3
2022-11-24T08:33:44.731Z,9.3
2022-11-24T08:43:45.750Z,9.3
2022-11-24T08:53:46.232Z,9.2
2022-11-24T09:03:49.880Z,9.2
2022-11-24T09:13:47.109Z,9.2
2022-11-24T09:23:48.092Z,9.1
2022-11-24T09:43:49.653Z,9.2
2022-11-24T09:53:50.081Z,9.2
2022-11-24T10:03:50.419Z,9.2
2022-11-24T10:33:53.022Z,9.4
2022-11-24T10:43:53.711Z,9.4
2022-11-24T10:53:53.820Z,9.3
2022-11-24T11:03:54.421Z,9.5
2022-11-24T11:14:00.002Z,9.6
2022-11-24T11:23:56.056Z,9.7
2022-11-24T11:34:05.208Z,9.8
2022-11-24T12:27:56.964Z,10.6
2022-11-24T12:35:12.689Z,10.6
2022-11-24T12:55:13.631Z,10.7
2022-11-24T13:05:13.648Z,11.2
2022-11-24T13:25:14.690Z,12
2022-11-24T13:35:15.000Z,11.3
2022-11-24T13:45:15.962Z,11.1
2022-11-24T14:35:18.434Z,10.9
2022-11-24T14:55:23.028Z,10.7
2022-11-24T15:15:19.690Z,10.3
2022-11-24T15:25:19.798Z,10
2022-11-24T15:35:20.715Z,9.7
2022-11-24T15:45:20.902Z,9.5
2022-11-24T15:55:21.932Z,9.2
2022-11-24T16:05:22.868Z,9
2022-11-24T16:15:23.169Z,8.7
2022-11-24T16:25:23.816Z,8.6
2022-11-24T16:35:24.324Z,8.4
2022-11-24T16:45:25.093Z,8.1
2022-11-24T16:55:25.891Z,7.9
2022-11-24T17:05:26.704Z,7.6
2022-11-24T17:15:32.937Z,7.4
2022-11-24T17:25:27.547Z,7.1
2022-11-24T17:55:29.690Z,6.5
2022-11-24T18:05:30.227Z,6.4
2022-11-24T18:15:31.129Z,6.4
2022-11-24T18:25:31.602Z,7.2
2022-11-24T18:35:32.454Z,8.2
2022-11-24T18:45:33.026Z,8.4
2022-11-24T18:55:33.336Z,8.4
2022-11-24T19:05:33.652Z,8.3
2022-11-24T19:15:34.092Z,8.2
2022-11-24T19:35:34.458Z,8
2022-11-24T19:45:35.163Z,8
2022-11-24T20:05:36.588Z,8
2022-11-24T20:25:36.872Z,7.8
2022-11-24T20:35:37.354Z,7.7
2022-11-24T20:45:38.408Z,7.6
2022-11-24T21:15:40.747Z,7.3
2022-11-24T21:25:41.570Z,7.1
2022-11-24T21:45:42.185Z,7
2022-11-24T21:55:43.013Z,7
2022-11-24T22:05:43.446Z,6.9
2022-11-24T22:15:44.093Z,6.8
2022-11-24T22:25:45.048Z,6.6
2022-11-24T22:35:45.459Z,6.3
2022-11-24T22:45:45.540Z,6
2022-11-24T22:55:46.528Z,5.8
2022-11-24T23:05:46.957Z,5.9
2022-11-24T23:15:47.011Z,6
2022-11-24T23:25:48.020Z,5.9
2022-11-24T23:35:48.764Z,6.1
2022-11-24T23:45:49.519Z,6.4
2022-11-24T23:55:50.061Z,6.4
